Time;durP1;ratioP1;P1;durP2;ratioP2;P2;SDS_P1;SDS_P2;PMS_P1;PMS_P2;Temp;Humidity;BMP_temperature;BMP_pressure;BME280_temperature;BME280_humidity;BME280_pressure;Samples;Min_cycle;Max_cycle;Signal;HPM_P1;HPM_P2
2022/03/09 00:00:13;;;;;;;15.67;10.10;;;;;;;0.18;51.77;101646.03;690387;28;1167;-88
2022/03/09 00:00:33;;;;;;;14.45;9.77;;;;;;;0.20;51.53;101649.66;690510;28;1507;-88
2022/03/09 00:00:54;;;;;;;14.50;9.33;;;;;;;0.20;51.74;101659.91;690549;28;1217;-88
2022/03/09 00:01:14;;;;;;;14.25;9.55;;;;;;;0.20;51.79;101659.91;690221;28;1237;-88
2022/03/09 00:01:36;;;;;;;14.35;9.15;;;;;;;0.15;51.84;101652.59;690345;28;1158;-87
2022/03/09 00:01:56;;;;;;;14.25;9.23;;;;;;;0.15;51.91;101656.06;687719;28;1400;-88
2022/03/09 00:02:17;;;;;;;15.38;9.00;;;;;;;0.12;51.65;101653.22;685083;28;1164;-86
2022/03/09 00:02:38;;;;;;;16.57;9.47;;;;;;;0.09;51.80;101650.38;687898;28;1327;-87
2022/03/09 00:02:58;;;;;;;15.03;9.40;;;;;;;0.07;51.90;101657.06;687719;28;948;-87
2022/03/09 00:03:19;;;;;;;12.95;9.30;;;;;;;-0.03;51.72;101646.03;687819;28;1120;-88
2022/03/09 00:03:40;;;;;;;12.67;9.37;;;;;;;0.11;51.94;101664.28;687835;28;1061;-88
2022/03/09 00:04:00;;;;;;;16.37;9.70;;;;;;;0.01;52.20;101652.31;687854;28;1217;-87
2022/03/09 00:04:21;;;;;;;18.03;10.07;;;;;;;-0.04;52.20;101643.31;693238;28;1072;-87
2022/03/09 00:04:42;;;;;;;17.30;9.88;;;;;;;-0.01;51.75;101653.88;690621;28;1173;-88
2022/03/09 00:05:03;;;;;;;13.45;9.32;;;;;;;-0.05;52.14;101647.56;684633;28;1379;-87
2022/03/09 00:05:23;;;;;;;11.70;9.13;;;;;;;-0.03;52.02;101656.28;690592;28;997;-88
2022/03/09 00:05:44;;;;;;;12.40;9.20;;;;;;;-0.05;51.99;101647.56;690644;28;897;-88
2022/03/09 00:06:04;;;;;;;12.37;9.27;;;;;;;-0.11;52.07;101647.03;690468;28;1090;-88
2022/03/09 00:06:25;;;;;;;12.90;9.25;;;;;;;-0.06;52.09;101650.00;690564;28;875;-88
2022/03/09 00:06:46;;;;;;;12.73;9.13;;;;;;;-0.08;52.26;101652.41;687807;28;1358;-88
2022/03/09 00:07:15;;;;;;;13.33;9.23;;;;;;;-0.05;52.46;101656.94;690546;28;1062;-87
2022/03/09 00:07:36;;;;;;;14.45;9.50;;;;;;;-0.03;52.40;101661.41;690562;28;859;-88
2022/03/09 00:07:56;;;;;;;15.20;10.13;;;;;;;-0.05;52.47;101656.94;687776;28;1160;-88
2022/03/09 00:08:17;;;;;;;15.90;10.43;;;;;;;-0.05;52.23;101646.66;690482;28;1448;-87
2022/03/09 00:08:37;;;;;;;17.25;10.68;;;;;;;-0.05;52.46;101652.69;690490;28;1253;-87
2022/03/09 00:08:58;;;;;;;17.00;10.30;;;;;;;-0.04;52.50;101662.19;690342;28;1272;-87
2022/03/09 00:09:19;;;;;;;17.57;10.40;;;;;;;-0.10;52.53;101645.34;687751;28;1162;-87
2022/03/09 00:09:39;;;;;;;15.80;10.10;;;;;;;-0.10;52.40;101641.13;684473;28;1918;-87
2022/03/09 00:10:00;;;;;;;15.48;10.25;;;;;;;-0.09;52.31;101648.06;687630;28;1294;-87
2022/03/09 00:10:21;;;;;;;15.43;10.40;;;;;;;-0.07;52.61;101650.78;695968;28;1209;-88
2022/03/09 00:10:41;;;;;;;15.63;10.30;;;;;;;-0.10;52.51;101646.28;693316;28;1093;-87
2022/03/09 00:11:02;;;;;;;13.90;9.70;;;;;;;-0.07;52.58;101654.22;693010;28;1183;-88
2022/03/09 00:11:23;;;;;;;13.95;9.68;;;;;;;-0.12;52.34;101645.25;687726;28;1285;-87
2022/03/09 00:11:43;;;;;;;13.57;9.63;;;;;;;-0.02;52.57;101665.78;690512;28;1128;-88
2022/03/09 00:12:04;;;;;;;14.00;9.60;;;;;;;-0.13;52.68;101642.53;690352;28;1188;-87
2022/03/09 00:12:25;;;;;;;12.85;9.45;;;;;;;-0.14;52.62;101646.75;685103;28;1362;-88
2022/03/09 00:12:46;;;;;;;12.85;9.70;;;;;;;-0.06;52.65;101657.69;687864;28;771;-88
2022/03/09 00:13:06;;;;;;;13.63;9.77;;;;;;;-0.07;52.66;101655.91;690427;28;999;-88
2022/03/09 00:13:27;;;;;;;13.88;9.77;;;;;;;-0.18;52.54;101649.84;687896;28;1215;-87
2022/03/09 00:14:07;;;;;;;15.10;9.60;;;;;;;-0.10;52.69;101664.22;685061;28;944;-87
2022/03/09 00:14:27;;;;;;;14.38;9.10;;;;;;;-0.20;53.21;101651.38;687808;28;834;-87
2022/03/09 00:14:48;;;;;;;17.35;9.40;;;;;;;-0.19;52.94;101648.06;689548;28;1202;-87
2022/03/09 00:15:09;;;;;;;17.77;9.73;;;;;;;-0.26;52.67;101643.16;692935;28;1184;-87
2022/03/09 00:15:29;;;;;;;17.88;9.82;;;;;;;-0.25;52.76;101647.50;693386;28;1368;-87
2022/03/09 00:15:50;;;;;;;12.90;9.50;;;;;;;-0.22;52.82;101658.03;695494;28;1387;-87
2022/03/09 00:16:11;;;;;;;12.40;9.10;;;;;;;-0.19;52.87;101664.31;690429;28;1250;-88
2022/03/09 00:16:32;;;;;;;13.32;9.20;;;;;;;-0.21;52.76;101659.84;693204;28;1140;-88
2022/03/09 00:16:53;;;;;;;14.02;9.20;;;;;;;-0.26;53.06;101650.84;693389;28;759;-88
2022/03/09 00:17:14;;;;;;;15.13;9.50;;;;;;;-0.30;52.88;101649.69;690350;28;1309;-87
2022/03/09 00:17:36;;;;;;;12.80;9.30;;;;;;;-0.29;52.90;101651.47;690549;28;759;-88
2022/03/09 00:18:02;;;;;;;13.20;9.45;;;;;;;-0.28;52.79;101657.53;690589;28;799;-88
2022/03/09 00:18:22;;;;;;;12.73;9.55;;;;;;;-0.31;52.90;101643.66;690499;28;1244;-88
2022/03/09 00:18:43;;;;;;;12.77;9.32;;;;;;;-0.27;52.86;101649.94;693262;28;1213;-88
2022/03/09 00:19:03;;;;;;;13.98;9.70;;;;;;;-0.28;52.84;101647.25;693001;28;1007;-88
2022/03/09 00:19:24;;;;;;;13.23;9.50;;;;;;;-0.23;53.03;101658.81;695825;28;1172;-88
2022/03/09 00:19:45;;;;;;;13.23;9.55;;;;;;;-0.33;53.10;101640.06;688146;28;1412;-87
2022/03/09 00:20:09;;;;;;;12.90;9.75;;;;;;;-0.33;52.88;101650.31;690335;28;1078;-87
2022/03/09 00:20:29;;;;;;;13.50;9.65;;;;;;;-0.39;53.06;101636.94;693254;28;953;-87
2022/03/09 00:20:50;;;;;;;15.63;10.15;;;;;;;-0.37;53.19;101640.56;687714;28;1434;-87
2022/03/09 00:21:10;;;;;;;14.90;10.07;;;;;;;-0.25;53.18;101657.78;687763;28;1032;-88
2022/03/09 00:21:31;;;;;;;14.15;9.88;;;;;;;-0.30;53.11;101649.69;687709;28;1081;-87
2022/03/09 00:21:52;;;;;;;14.00;10.27;;;;;;;-0.25;53.21;101663.81;690614;28;855;-88
2022/03/09 00:22:12;;;;;;;17.33;10.40;;;;;;;-0.30;53.07;101645.44;690305;28;932;-87
2022/03/09 00:22:33;;;;;;;17.25;10.45;;;;;;;-0.33;53.25;101652.88;690407;28;1477;-87
2022/03/09 00:22:53;;;;;;;15.63;9.82;;;;;;;-0.24;52.98;101665.63;687840;28;1318;-87
2022/03/09 00:23:14;;;;;;;14.53;10.00;;;;;;;-0.23;53.50;101671.63;687770;28;1153;-87
2022/03/09 00:23:35;;;;;;;14.52;9.80;;;;;;;-0.27;53.23;101654.19;687799;28;791;-88
2022/03/09 00:23:55;;;;;;;15.88;9.85;;;;;;;-0.30;53.27;101655.69;687682;28;1433;-87
2022/03/09 00:24:18;;;;;;;15.40;9.70;;;;;;;-0.35;53.20;101657.00;687545;28;1179;-87
2022/03/09 00:24:39;;;;;;;15.82;9.85;;;;;;;-0.38;53.36;101641.31;690452;28;1376;-87
2022/03/09 00:25:00;;;;;;;13.90;9.48;;;;;;;-0.36;53.25;101649.16;687691;28;1275;-88
2022/03/09 00:25:20;;;;;;;12.43;9.27;;;;;;;-0.37;53.33;101647.34;688032;28;1273;-88
2022/03/09 00:25:41;;;;;;;12.05;9.10;;;;;;;-0.34;53.60;101661.34;687861;28;1312;-88
2022/03/09 00:26:02;;;;;;;13.60;9.40;;;;;;;-0.38;53.33;101654.13;690535;28;1039;-88
2022/03/09 00:26:23;;;;;;;13.65;9.30;;;;;;;-0.39;53.29;101654.91;687691;28;1445;-88
2022/03/09 00:26:44;;;;;;;13.90;9.30;;;;;;;-0.41;53.67;101660.66;690476;28;1398;-88
2022/03/09 00:27:04;;;;;;;15.18;8.80;;;;;;;-0.43;53.38;101658.00;687718;28;1073;-88
2022/03/09 00:27:25;;;;;;;17.90;9.07;;;;;;;-0.39;53.51;101654.03;687771;28;1202;-87
2022/03/09 00:27:46;;;;;;;19.48;9.38;;;;;;;-0.38;53.66;101658.38;687855;28;962;-87
2022/03/09 00:28:06;;;;;;;18.43;10.00;;;;;;;-0.39;53.46;101667.72;687652;28;1168;-88
2022/03/09 00:28:27;;;;;;;15.25;9.90;;;;;;;-0.38;53.63;101677.22;685127;28;1165;-87
2022/03/09 00:28:48;;;;;;;14.27;10.35;;;;;;;-0.36;53.59;101673.16;685118;28;1322;-87
2022/03/09 00:29:08;;;;;;;13.30;10.13;;;;;;;-0.40;53.97;101668.50;690324;28;1270;-88
2022/03/09 00:29:34;;;;;;;14.15;10.55;;;;;;;-0.41;54.02;101666.72;687634;28;1284;-88
2022/03/09 00:29:55;;;;;;;13.98;9.55;;;;;;;-0.34;53.78;101673.25;687476;28;1303;-88
2022/03/09 00:30:15;;;;;;;13.50;9.20;;;;;;;-0.49;53.95;101665.16;690456;28;1303;-87
2022/03/09 00:30:36;;;;;;;12.90;9.20;;;;;;;-0.48;53.82;101667.84;690476;28;811;-88
2022/03/09 00:30:57;;;;;;;12.32;9.27;;;;;;;-0.47;54.00;101672.22;690525;28;1116;-87
2022/03/09 00:31:17;;;;;;;12.88;9.45;;;;;;;-0.52;53.94;101652.94;693251;28;1248;-86
2022/03/09 00:31:38;;;;;;;13.27;9.55;;;;;;;-0.46;53.91;101673.09;690440;28;1219;-87
2022/03/09 00:31:59;;;;;;;12.80;9.30;;;;;;;-0.54;53.96;101653.56;690358;28;1188;-87
2022/03/09 00:32:19;;;;;;;13.27;9.38;;;;;;;-0.44;53.90;101675.03;690513;28;1199;-88
2022/03/09 00:32:40;;;;;;;11.65;8.63;;;;;;;-0.52;54.01;101662.31;687808;28;1121;-87
2022/03/09 00:33:01;;;;;;;13.23;8.50;;;;;;;-0.49;54.27;101673.75;687661;28;1297;-88
2022/03/09 00:33:21;;;;;;;13.27;8.87;;;;;;;-0.54;54.08;101658.69;690301;28;1081;-87
2022/03/09 00:33:42;;;;;;;13.65;9.48;;;;;;;-0.52;54.13;101668.34;693174;28;1208;-88
2022/03/09 00:34:02;;;;;;;12.07;9.18;;;;;;;-0.50;54.34;101665.91;687690;28;1210;-87
2022/03/09 00:34:23;;;;;;;12.50;8.90;;;;;;;-0.57;54.39;101657.69;687861;28;820;-87
2022/03/09 00:34:44;;;;;;;13.15;8.70;;;;;;;-0.52;54.13;101672.59;687660;28;1324;-88
2022/03/09 00:35:06;;;;;;;13.75;9.38;;;;;;;-0.51;54.20;101669.25;687621;28;1203;-88
2022/03/09 00:35:26;;;;;;;14.48;9.60;;;;;;;-0.59;54.34;101661.78;687824;28;882;-88
2022/03/09 00:35:48;;;;;;;16.77;10.00;;;;;;;-0.46;54.46;101683.34;690531;28;1341;-87
2022/03/09 00:36:08;;;;;;;17.48;10.02;;;;;;;-0.51;54.42;101664.13;690408;28;1236;-87
2022/03/09 00:36:29;;;;;;;16.10;9.63;;;;;;;-0.48;54.34;101679.75;687763;28;1238;-87
2022/03/09 00:36:50;;;;;;;15.35;9.20;;;;;;;-0.44;54.53;101681.84;687792;28;1266;-88
2022/03/09 00:37:10;;;;;;;14.10;9.03;;;;;;;-0.57;54.31;101655.13;684931;28;977;-87
2022/03/09 00:37:31;;;;;;;12.63;8.98;;;;;;;-0.56;54.41;101661.16;687758;28;1092;-87
2022/03/09 00:37:52;;;;;;;11.45;9.10;;;;;;;-0.52;54.46;101670.03;687858;28;1240;-88
2022/03/09 00:38:13;;;;;;;13.10;9.75;;;;;;;-0.54;54.67;101663.81;687731;28;1009;-88
2022/03/09 00:38:34;;;;;;;13.90;10.03;;;;;;;-0.47;54.58;101674.78;692978;28;1228;-88
2022/03/09 00:38:56;;;;;;;12.52;9.77;;;;;;;-0.54;54.51;101666.41;690397;28;1319;-88
2022/03/09 00:39:16;;;;;;;12.13;9.05;;;;;;;-0.48;54.29;101675.53;690525;28;1024;-87
2022/03/09 00:39:37;;;;;;;14.70;8.93;;;;;;;-0.53;54.30;101665.63;684754;28;1239;-86
2022/03/09 00:39:58;;;;;;;16.70;9.03;;;;;;;-0.48;54.44;101682.31;690270;28;1143;-87
2022/03/09 00:40:18;;;;;;;19.57;9.40;;;;;;;-0.51;54.52;101669.25;687650;28;1302;-87
2022/03/09 00:40:39;;;;;;;17.55;9.63;;;;;;;-0.42;54.29;101682.88;691001;28;1292;-87
2022/03/09 00:41:02;;;;;;;16.73;9.68;;;;;;;-0.44;54.74;101686.97;693709;28;1263;-88
2022/03/09 00:41:22;;;;;;;12.07;9.75;;;;;;;-0.54;54.74;101668.97;690943;28;1303;-88
2022/03/09 00:41:43;;;;;;;12.23;9.97;;;;;;;-0.53;54.88;101673.31;693502;28;1222;-88
2022/03/09 00:42:03;;;;;;;14.02;9.88;;;;;;;-0.50;54.48;101671.91;695359;28;1270;-88
2022/03/09 00:42:24;;;;;;;16.25;9.75;;;;;;;-0.50;54.95;101671.91;690958;28;772;-87
2022/03/09 00:42:45;;;;;;;17.80;10.03;;;;;;;-0.47;54.48;101669.66;691040;28;1024;-88
2022/03/09 00:43:05;;;;;;;15.93;10.18;;;;;;;-0.36;54.66;101687.63;690844;28;1308;-88
2022/03/09 00:43:26;;;;;;;16.23;10.20;;;;;;;-0.36;54.54;101685.06;688254;28;1365;-88
2022/03/09 00:43:47;;;;;;;21.13;10.38;;;;;;;-0.38;54.77;101684.03;689989;28;1224;-88
2022/03/09 00:44:07;;;;;;;20.63;10.60;;;;;;;-0.38;54.35;101677.22;690386;28;1192;-87
2022/03/09 00:44:28;;;;;;;18.05;10.70;;;;;;;-0.30;54.74;101690.72;690860;28;1151;-87
2022/03/09 00:44:48;;;;;;;19.13;10.00;;;;;;;-0.42;54.55;101675.19;690916;28;1606;-87
2022/03/09 00:45:09;;;;;;;19.03;9.90;;;;;;;-0.38;54.52;101676.34;693472;28;1199;-87
2022/03/09 00:45:30;;;;;;;21.27;9.98;;;;;;;-0.37;54.75;101680.69;690995;28;1266;-88
2022/03/09 00:45:50;;;;;;;15.63;10.00;;;;;;;-0.46;54.91;101676.56;691018;28;1200;-88
2022/03/09 00:46:11;;;;;;;17.00;9.57;;;;;;;-0.40;54.67;101683.00;688279;28;1069;-88
2022/03/09 00:46:32;;;;;;;13.90;8.80;;;;;;;-0.46;54.81;101675.66;688211;28;1204;-88
2022/03/09 00:46:53;;;;;;;13.90;8.80;;;;;;;-0.49;54.59;101675.41;685645;28;1363;-87
2022/03/09 00:47:13;;;;;;;13.20;9.20;;;;;;;-0.40;54.73;101689.03;688145;28;1059;-88
2022/03/09 00:47:34;;;;;;;19.65;9.50;;;;;;;-0.50;54.64;101671.03;688243;28;1203;-88
2022/03/09 00:47:54;;;;;;;19.33;9.50;;;;;;;-0.45;55.09;101685.19;688408;28;926;-88
2022/03/09 00:48:15;;;;;;;18.45;9.50;;;;;;;-0.42;55.10;101693.13;688214;28;1041;-88
2022/03/09 00:48:35;;;;;;;13.63;10.10;;;;;;;-0.47;54.84;101682.47;688299;28;914;-87
2022/03/09 00:48:56;;;;;;;15.23;10.43;;;;;;;-0.48;54.94;101679.75;688238;28;965;-88
2022/03/09 00:49:17;;;;;;;14.95;10.00;;;;;;;-0.50;55.03;101682.19;690948;28;1192;-88
2022/03/09 00:49:37;;;;;;;13.57;9.60;;;;;;;-0.57;55.02;101667.94;687585;28;1926;-87
2022/03/09 00:49:58;;;;;;;14.20;9.30;;;;;;;-0.51;54.90;101679.50;687805;28;1498;-87
2022/03/09 00:50:18;;;;;;;15.15;9.48;;;;;;;-0.46;54.93;101688.47;692652;28;1068;-88
2022/03/09 00:50:39;;;;;;;15.13;9.27;;;;;;;-0.55;54.94;101687.69;693569;28;1228;-88
2022/03/09 00:51:12;;;;;;;17.77;9.35;;;;;;;-0.51;55.06;101689.75;690546;28;1225;-89
2022/03/09 00:51:33;;;;;;;16.58;9.25;;;;;;;-0.57;55.15;101685.88;690935;28;861;-88
2022/03/09 00:51:53;;;;;;;14.77;9.43;;;;;;;-0.64;55.24;101677.53;693252;28;1284;-87
2022/03/09 00:52:14;;;;;;;14.35;9.80;;;;;;;-0.64;55.00;101678.41;693448;28;1077;-88
2022/03/09 00:52:34;;;;;;;14.97;9.80;;;;;;;-0.64;55.28;101683.53;693646;28;1261;-87
2022/03/09 00:52:55;;;;;;;13.80;9.70;;;;;;;-0.71;55.11;101676.06;693577;28;1419;-88
2022/03/09 00:53:16;;;;;;;16.30;9.60;;;;;;;-0.65;55.33;101694.56;688200;28;1127;-87
2022/03/09 00:53:37;;;;;;;15.60;9.35;;;;;;;-0.68;55.69;101690.81;691060;28;1169;-87
2022/03/09 00:53:58;;;;;;;16.27;9.55;;;;;;;-0.78;55.43;101673.72;690926;28;1477;-87
2022/03/09 00:54:18;;;;;;;14.40;9.52;;;;;;;-0.75;55.54;101680.03;693576;28;1106;-87
2022/03/09 00:54:39;;;;;;;16.75;9.73;;;;;;;-0.66;55.56;101694.41;694171;28;1177;-88
2022/03/09 00:54:59;;;;;;;16.67;9.87;;;;;;;-0.71;55.50;101692.38;693609;28;1080;-87
2022/03/09 00:55:20;;;;;;;16.02;10.07;;;;;;;-0.84;55.81;101668.97;693654;28;1176;-88
2022/03/09 00:55:41;;;;;;;13.10;10.10;;;;;;;-0.69;55.52;101695.06;690905;28;1205;-88
2022/03/09 00:56:01;;;;;;;13.40;10.23;;;;;;;-0.73;55.38;101699.03;693440;28;1282;-87
2022/03/09 00:56:22;;;;;;;14.43;10.40;;;;;;;-0.72;55.42;101690.56;690712;28;1270;-88
2022/03/09 00:56:42;;;;;;;14.77;10.23;;;;;;;-0.80;55.77;101680.38;689148;28;1426;-88
2022/03/09 00:57:03;;;;;;;13.10;9.65;;;;;;;-0.78;55.68;101686.53;687757;28;1171;-88
2022/03/09 00:57:24;;;;;;;14.10;9.80;;;;;;;-0.73;55.80;101701.59;688314;28;822;-88
2022/03/09 00:57:44;;;;;;;14.13;9.82;;;;;;;-0.85;56.00;101682.53;693750;28;1247;-88
2022/03/09 00:58:05;;;;;;;14.70;10.13;;;;;;;-0.80;56.27;101686.44;693595;28;1130;-87
2022/03/09 00:58:26;;;;;;;13.32;9.82;;;;;;;-0.84;55.85;101686.91;693765;28;795;-87
2022/03/09 00:58:47;;;;;;;13.70;9.93;;;;;;;-0.85;56.10;101677.41;691058;28;1065;-88
2022/03/09 00:59:08;;;;;;;14.05;9.60;;;;;;;-0.89;55.90;101683.03;690865;28;1304;-88
2022/03/09 00:59:28;;;;;;;16.20;9.75;;;;;;;-0.91;56.00;101677.78;693411;28;771;-88
2022/03/09 00:59:49;;;;;;;16.53;9.97;;;;;;;-0.93;56.10;101679.28;693297;28;783;-87
2022/03/09 01:00:10;;;;;;;15.07;9.90;;;;;;;-0.92;56.05;101686.22;693573;28;1102;-87
2022/03/09 01:00:32;;;;;;;13.90;9.98;;;;;;;-0.88;56.35;101690.84;696286;28;1274;-87
2022/03/09 01:00:52;;;;;;;14.43;10.00;;;;;;;-0.86;56.25;101696.13;693738;28;759;-88
2022/03/09 01:01:13;;;;;;;15.55;10.20;;;;;;;-0.94;55.98;101682.59;691493;28;1404;-88
2022/03/09 01:01:33;;;;;;;15.23;10.13;;;;;;;-0.95;56.03;101685.94;693734;28;831;-87
2022/03/09 01:01:54;;;;;;;14.50;9.88;;;;;;;-0.91;56.23;101693.16;696468;28;1375;-88
2022/03/09 01:02:15;;;;;;;15.02;9.90;;;;;;;-0.93;56.15;101689.53;687639;28;1373;-87
2022/03/09 01:02:43;;;;;;;16.05;9.88;;;;;;;-0.92;56.08;101690.44;690967;28;815;-88
2022/03/09 02:11:57;;;;;;;13.85;9.00;;;;;;;-0.98;57.94;101670.31;698965;28;1118;-88
2022/03/09 02:12:19;;;;;;;12.60;8.70;;;;;;;-0.96;57.98;101681.59;696093;28;1440;-87
2022/03/09 02:12:39;;;;;;;10.93;8.45;;;;;;;-1.06;58.05;101663.59;696038;28;1172;-88
2022/03/09 02:13:00;;;;;;;11.80;8.85;;;;;;;-0.97;58.25;101679.78;693392;28;1196;-87
2022/03/09 02:13:20;;;;;;;13.27;9.17;;;;;;;-0.99;58.25;101678.75;692965;28;1191;-87
2022/03/09 02:13:41;;;;;;;15.68;9.68;;;;;;;-1.04;58.12;101677.44;693312;28;1342;-89
2022/03/09 02:14:01;;;;;;;15.43;9.55;;;;;;;-1.07;58.13;101660.13;690742;28;1039;-88
2022/03/09 02:14:42;;;;;;;18.23;9.63;;;;;;;-0.98;58.31;101690.81;688014;28;1282;-88
2022/03/09 02:15:03;;;;;;;16.42;9.27;;;;;;;-1.04;58.03;101674.88;690544;28;1443;-88
2022/03/09 02:15:24;;;;;;;11.98;8.82;;;;;;;-1.08;58.18;101671.13;693513;28;1439;-88
2022/03/09 02:15:45;;;;;;;12.07;9.02;;;;;;;-1.14;58.17;101657.75;693500;28;814;-88
2022/03/09 02:16:06;;;;;;;10.93;8.67;;;;;;;-1.10;58.17;101676.88;690688;28;1091;-88
2022/03/09 02:16:27;;;;;;;11.02;8.65;;;;;;;-1.10;58.40;101680.34;693573;28;798;-89
2022/03/09 02:16:52;;;;;;;11.45;8.35;;;;;;;-1.17;58.40;101673.75;693442;28;1403;-87
2022/03/09 02:17:15;;;;;;;12.45;8.75;;;;;;;-1.15;58.17;101673.91;690626;28;1360;-88
2022/03/09 02:17:36;;;;;;;13.05;9.18;;;;;;;-1.13;58.39;101683.53;690711;28;1259;-88
2022/03/09 02:17:59;;;;;;;13.25;9.10;;;;;;;-1.17;58.43;101673.75;693388;28;1432;-88
2022/03/09 02:18:20;;;;;;;14.00;9.38;;;;;;;-1.21;58.68;101673.34;687942;28;1396;-88
2022/03/09 02:18:41;;;;;;;13.73;9.57;;;;;;;-1.18;58.60;101678.75;690907;28;700;-88
2022/03/09 02:19:02;;;;;;;12.52;9.68;;;;;;;-1.23;58.39;101668.09;690621;28;1198;-87
2022/03/09 02:19:23;;;;;;;11.40;9.43;;;;;;;-1.14;58.79;101683.38;690651;28;1151;-88
2022/03/09 02:19:49;;;;;;;11.73;9.15;;;;;;;-1.23;58.96;101673.22;692941;28;1283;-88
2022/03/09 02:20:09;;;;;;;12.90;8.88;;;;;;;-1.24;59.06;101668.88;693400;28;1090;-88
2022/03/09 02:20:30;;;;;;;12.90;8.43;;;;;;;-1.24;58.89;101670.53;695727;28;1238;-88
2022/03/09 02:20:53;;;;;;;14.10;9.25;;;;;;;-1.12;58.82;101687.88;693414;28;1295;-88
2022/03/09 02:21:16;;;;;;;13.48;9.45;;;;;;;-1.21;58.52;101665.66;687927;28;1391;-88
2022/03/09 02:21:37;;;;;;;12.20;9.30;;;;;;;-1.26;58.69;101655.00;690733;28;1284;-88
2022/03/09 02:22:05;;;;;;;11.32;8.65;;;;;;;-1.16;58.89;101674.66;690588;28;1266;-88
2022/03/09 02:22:37;;;;;;;11.45;8.80;;;;;;;-1.12;58.65;101682.75;688026;28;1188;-88
2022/03/09 02:22:58;;;;;;;13.07;8.70;;;;;;;-1.18;58.68;101682.19;688064;28;1050;-88
2022/03/09 02:23:19;;;;;;;14.27;8.80;;;;;;;-1.22;58.88;101668.97;690596;28;1305;-87
2022/03/09 02:23:40;;;;;;;15.23;9.40;;;;;;;-1.18;58.84;101671.97;690611;28;1277;-87
2022/03/09 02:24:00;;;;;;;12.80;9.70;;;;;;;-1.21;58.89;101666.56;690336;28;1680;-88
2022/03/09 02:24:22;;;;;;;13.02;9.90;;;;;;;-1.10;58.65;101679.44;693565;28;1098;-88
2022/03/09 02:24:43;;;;;;;13.15;9.65;;;;;;;-1.17;58.78;101667.75;693580;28;889;-88
2022/03/09 02:25:07;;;;;;;14.85;9.52;;;;;;;-1.09;58.86;101681.22;693079;28;1093;-88
2022/03/09 02:25:27;;;;;;;14.68;9.40;;;;;;;-1.07;58.61;101685.75;690689;28;1298;-88
2022/03/09 02:25:49;;;;;;;15.02;9.60;;;;;;;-1.12;58.77;101667.41;696134;28;1294;-88
2022/03/09 02:26:09;;;;;;;13.43;9.40;;;;;;;-1.05;58.64;101673.97;690579;28;1184;-87
2022/03/09 02:26:30;;;;;;;13.23;9.27;;;;;;;-1.04;58.63;101677.44;690865;28;759;-88
2022/03/09 02:26:51;;;;;;;13.48;9.10;;;;;;;-1.09;58.54;101664.22;696117;28;1276;-88
2022/03/09 02:27:12;;;;;;;12.52;8.95;;;;;;;-0.99;58.56;101678.75;696058;28;1086;-88
2022/03/09 02:27:32;;;;;;;13.57;9.20;;;;;;;-1.05;58.58;101673.97;690655;28;1293;-88
2022/03/09 02:27:53;;;;;;;13.32;9.82;;;;;;;-1.06;58.78;101661.03;690721;28;1099;-88
2022/03/09 02:28:13;;;;;;;13.93;9.80;;;;;;;-1.00;58.53;101675.28;690637;28;1246;-88
2022/03/09 02:28:38;;;;;;;12.17;9.33;;;;;;;-1.00;58.25;101676.97;693527;28;831;-88
2022/03/09 02:28:59;;;;;;;10.85;8.80;;;;;;;-1.01;58.39;101675.13;690502;28;1220;-87
2022/03/09 02:29:19;;;;;;;12.27;9.10;;;;;;;-1.00;58.41;101676.97;690499;28;1298;-88
2022/03/09 02:29:41;;;;;;;12.90;9.40;;;;;;;-0.98;58.10;101680.56;687437;28;1906;-88
2022/03/09 02:30:02;;;;;;;13.35;9.68;;;;;;;-0.99;58.33;101673.63;690697;28;1135;-88
2022/03/09 02:30:22;;;;;;;12.02;9.45;;;;;;;-0.93;58.35;101683.53;688010;28;1285;-88
2022/03/09 02:30:43;;;;;;;12.25;9.07;;;;;;;-0.98;58.47;101678.00;693517;28;866;-88
2022/03/09 02:31:03;;;;;;;13.63;8.70;;;;;;;-0.95;58.46;101679.94;690459;28;1034;-88
2022/03/09 02:31:24;;;;;;;14.40;8.70;;;;;;;-1.02;58.60;101673.34;687390;28;1352;-88
2022/03/09 02:31:44;;;;;;;14.88;9.10;;;;;;;-1.01;58.66;101675.13;690689;28;1260;-88
2022/03/09 02:32:06;;;;;;;13.20;9.37;;;;;;;-1.03;58.40;101671.53;693134;28;1257;-89
2022/03/09 02:32:27;;;;;;;12.00;9.30;;;;;;;-0.98;58.36;101686.56;693434;28;1225;-88
2022/03/09 02:32:49;;;;;;;11.43;8.75;;;;;;;-0.99;58.42;101681.31;690668;28;1292;-87
2022/03/09 02:33:10;;;;;;;13.40;9.13;;;;;;;-1.00;58.67;101676.97;687814;28;1208;-87
2022/03/09 02:33:30;;;;;;;12.88;9.00;;;;;;;-1.00;58.67;101677.84;693306;28;1188;-88
2022/03/09 02:33:51;;;;;;;12.48;9.02;;;;;;;-1.04;58.65;101659.50;692416;28;1707;-88
2022/03/09 02:34:11;;;;;;;12.10;8.90;;;;;;;-0.98;58.58;101680.56;693202;28;1177;-88
2022/03/09 02:34:32;;;;;;;13.38;9.02;;;;;;;-1.00;58.60;101682.09;693438;28;1177;-88
2022/03/09 02:34:53;;;;;;;13.35;8.93;;;;;;;-1.02;58.64;101673.34;693321;28;1320;-87
2022/03/09 02:35:15;;;;;;;13.87;8.87;;;;;;;-1.00;58.40;101689.78;690558;28;1135;-88
2022/03/09 02:35:36;;;;;;;13.23;8.80;;;;;;;-1.05;58.44;101676.53;690755;28;1275;-88
2022/03/09 02:35:56;;;;;;;13.85;9.10;;;;;;;-1.12;58.25;101672.50;690733;28;1059;-88
2022/03/09 02:36:20;;;;;;;13.90;9.40;;;;;;;-1.06;58.31;101684.09;693409;28;1385;-88
2022/03/09 02:36:40;;;;;;;13.27;9.40;;;;;;;-1.15;58.65;101674.81;695703;28;1117;-88
2022/03/09 02:37:01;;;;;;;12.53;9.30;;;;;;;-1.12;58.64;101677.63;693522;28;1008;-88
2022/03/09 02:37:22;;;;;;;13.03;9.40;;;;;;;-1.11;58.58;101683.69;696219;28;783;-88
2022/03/09 02:37:43;;;;;;;12.60;8.95;;;;;;;-1.18;58.78;101671.97;696324;28;862;-88
2022/03/09 02:38:04;;;;;;;11.73;8.77;;;;;;;-1.18;58.90;101681.31;693253;28;1389;-89
2022/03/09 02:38:24;;;;;;;11.45;8.77;;;;;;;-1.22;58.59;101675.03;693443;28;1131;-88
2022/03/09 02:38:45;;;;;;;12.60;8.90;;;;;;;-1.21;59.14;101674.25;688123;28;874;-88
2022/03/09 02:39:05;;;;;;;12.90;9.20;;;;;;;-1.27;58.96;101671.13;690546;28;1116;-87
2022/03/09 02:39:36;;;;;;;11.30;8.83;;;;;;;-1.29;58.63;101662.41;690544;28;768;-88
2022/03/09 02:39:56;;;;;;;11.07;8.65;;;;;;;-1.28;58.81;101675.38;693159;28;1057;-87
2022/03/09 02:40:17;;;;;;;11.50;8.73;;;;;;;-1.37;58.92;101663.38;696059;28;1183;-89
2022/03/09 02:40:38;;;;;;;12.18;8.90;;;;;;;-1.32;58.79;101680.09;693570;28;897;-89
2022/03/09 02:40:58;;;;;;;11.73;9.00;;;;;;;-1.42;58.95;101671.53;690570;28;1634;-88
2022/03/09 02:41:19;;;;;;;12.00;8.98;;;;;;;-1.40;59.15;101675.16;693231;28;1301;-87
2022/03/09 02:41:39;;;;;;;12.80;9.47;;;;;;;-1.36;59.09;101680.53;696125;28;1165;-88
2022/03/09 02:42:00;;;;;;;12.47;8.87;;;;;;;-1.42;59.06;101676.66;690729;28;1098;-87
2022/03/09 02:42:21;;;;;;;13.65;9.00;;;;;;;-1.47;58.88;101669.31;690507;28;1282;-87
2022/03/09 02:42:42;;;;;;;13.65;9.07;;;;;;;-1.49;59.14;101664.06;693239;28;1749;-88
2022/03/09 02:43:02;;;;;;;13.27;9.00;;;;;;;-1.42;59.07;101683.47;693113;28;1505;-88
2022/03/09 02:43:23;;;;;;;11.37;8.47;;;;;;;-1.47;59.15;101677.91;690669;28;1138;-88
2022/03/09 02:43:43;;;;;;;11.23;8.40;;;;;;;-1.48;58.93;101671.00;690677;28;915;-88
2022/03/09 02:44:04;;;;;;;12.65;8.75;;;;;;;-1.51;59.26;101665.56;690625;28;1102;-87
2022/03/09 02:44:25;;;;;;;14.68;9.32;;;;;;;-1.49;59.42;101669.16;690797;28;1167;-88
2022/03/09 02:44:46;;;;;;;15.77;9.20;;;;;;;-1.53;59.44;101664.56;690699;28;1175;-88
2022/03/09 02:45:07;;;;;;;14.43;8.87;;;;;;;-1.51;59.30;101675.81;693189;28;1187;-88
2022/03/09 02:45:27;;;;;;;12.95;8.63;;;;;;;-1.53;59.08;101669.66;696152;28;1357;-88
2022/03/09 02:45:48;;;;;;;11.90;9.00;;;;;;;-1.51;59.38;101673.25;693259;28;1215;-88
2022/03/09 02:46:09;;;;;;;11.93;9.18;;;;;;;-1.49;59.08;101679.41;690438;28;1723;-88
2022/03/09 02:46:29;;;;;;;12.50;9.15;;;;;;;-1.50;58.93;101682.75;694893;28;1265;-87
2022/03/09 02:46:50;;;;;;;13.27;9.00;;;;;;;-1.53;59.16;101669.66;694102;28;1180;-88
2022/03/09 02:47:10;;;;;;;12.48;9.07;;;;;;;-1.52;59.38;101679.16;693327;28;1092;-88
2022/03/09 02:47:31;;;;;;;13.00;8.90;;;;;;;-1.56;59.33;101667.72;696179;28;1270;-88
2022/03/09 02:47:51;;;;;;;12.03;8.70;;;;;;;-1.58;59.42;101674.38;696091;28;1220;-89
2022/03/09 02:48:12;;;;;;;12.35;8.80;;;;;;;-1.56;59.13;101671.97;693333;28;1310;-88
2022/03/09 02:48:33;;;;;;;11.88;8.90;;;;;;;-1.61;59.58;101674.06;690572;28;1461;-87
2022/03/09 02:48:53;;;;;;;12.90;9.17;;;;;;;-1.60;59.25;101675.91;685572;28;1147;-88